Airfield :
LOGIN :

Register | Disclaimer

   EN    FR    IT 

 










Legend :    VFR   Marginal VFR   IFR   Intensive IFR   Very Intensive IFR
Visi :
Ceiling :
>= 8 km
>= 3000ft
5 to 8 km
1000 to 3000 ft
1500m to 5 km
500 to 1000 ft
800 to 1500m
200 to 500 ft
< 800m
< 200 ft
Symbols :   Thunderstorms  Fog  Heavy snow  Heavy precipitations  Wind > 20 kt
SIGMETs :     Misc.  Thunderstorms  Icing  Turbulence  Mountain Waves  Volcanic Ashes






- Airport Elevation : 1416 ft
- IATA code : ZRH


LSZH - Zurich

CURRENT METAR :
  • 062150Z VRB01KT CAVOK 09/02 Q1026 NOSIG

EXPIRED METARs :
  • 062120Z 19001KT CAVOK 08/02 Q1026 NOSIG
  • 062050Z VRB01KT CAVOK 10/01 Q1026 NOSIG
  • 062020Z VRB01KT CAVOK 11/02 Q1026 NOSIG
  • 061950Z VRB01KT CAVOK 12/02 Q1025 NOSIG
  • 061920Z 03002KT CAVOK 12/02 Q1025 NOSIG

TAF TAF LSZH
Valid from the 06 at 21:00 until the 08 at 03:00 UTC


062025Z 0621/0803 VRB02KT CAVOK TX22/0715Z TN02/0705Z
BECMG 0709/0712 05010KT
BECMG 0716/0719 VRB03KT
ATIS : +41 43 816 2295 (DEP) +41 43 816 2294 (ARR)



MET'MAP, your aeronautical weather chart ! - Copyright ORBIFLY December 2007 - Disclaimer

ORBIFLY MET'MAP TEAM :

Programming & Development : Alexandra Zaïnal
Concept & original design : Baudouin d'Aumeries
Assistance for programming : Marc-Olivier Méhu
Technical & hardware support : Manuel Goepfert

Contact : metmap@orbifly.com




SOURCES & CREDITS :

   NOAA